Alta, CA (95701)

7:28 AM PDT on September 30, 2014 (GMT -0700)
HADS DRUM POWERHOUSE NEAR BLUE CANYON CA US | Change Station
CLOSE
Current Station
Personal Weather Station
Location: Alta, CA
Elevation: 3398 ft
Nearby Weather Stations

Elev 3398 ft 39.26 °N, 120.77 °W | Updated 58 minutes ago

Partly Cloudy
Partly Cloudy
47 °F
Feels Like 47 °F
N
Wind Variable Wind from North
Gusts 0.0 mph

Today
High -- | Low -- °F
--% Chance of Precip.
Yesterday
High -- | Low -- °F
Precip. -- in
6:58 AM 6:47 PM
Waxing Crescent, 37% visible
Pressure 30.08 in
Visibility 10.0 miles
Clouds Mostly Cloudy 2300 ft
Windchill 47 °F
Dew Point Not available.
Humidity Not available.
Rainfall 0.00 in
Snow Depth 0 in , 1 in , 2 in
UV 0 out of 12
Pollen 5.20 out of 12
Ozone Good
PM2.5 Moderate
Flu Activity Not available.
SPECI KBLU 301401Z AUTO 00000KT 10SM BKN023 11/07 A3008 RMK AO2 T01060067

More Conditions Fewer Conditions

Pressure 30.08 in
Visibility 10.0 miles
Clouds Mostly Cloudy 2300 ft
Windchill 47 °F
Dew Point Not available.
Humidity Not available.
Rainfall 0.00 in
Snow Depth 0 in , 1 in , 2 in
UV 0 out of 12
Pollen 5.20 out of 12
Ozone Good
PM2.5 Moderate
Flu Activity Not available.
SPECI KBLU 301401Z AUTO 00000KT 10SM BKN023 11/07 A3008 RMK AO2 T01060067

More Conditions Fewer Conditions

10-Day Weather Forecast

Almanac

Astronomy

Sep. 30, 2014 Rise Set
Actual Time 6:58 AM PDT 6:47 PM PDT
Civil Twilight 6:31 AM PDT 7:13 PM PDT
Nautical Twilight 6:00 AM PDT 7:44 PM PDT
Astronomical Twilight 5:29 AM PDT 8:16 PM PDT
Moon 1:09 PM PDT 11:24 PM PDT
Length of Visible Light 12h 42m
Length of Day
11h 48m
Tomorrow will be 2m 32s shorter.
Waxing Crescent, 37% of the Moon is Illuminated
Today
Waxing Crescent
Oct 1
First Quarter
Oct 8
Full
Oct 15
Last Quarter
Oct 23
New

Today's Extremes

State Highs State Lows

Community

WunderPhotos

Upload Photos

1,757,643 photos uploaded!

Nearby

Air Quality

  Air Quality AQ Index Pollutant
Yesterday Moderate
PM2.5
Yesterday Good
OZONE
Current Moderate
PM2.5
Current Good
OZONE
Tuesday Good
OZONE
Wednesday Moderate
OZONE
Thursday Moderate
OZONE
Friday Moderate
OZONE
Saturday Moderate
OZONE

Snow Depth

Station Depth Elevation
Crowder Flat 0 in 5100 ft
Echo Peak 1 in 7800 ft
Summit Meadow 2 in 9122 ft
Truckee #2 0 in 6400 ft
Independence Camp 0 in 7000 ft

Earthquake Activity

City Distance Mag. Time & Date
American Canyon, California 107 miles 2.6 12:17 AM PDT
2014-09-29
Mammoth Lakes, California 147 miles 3.0 8:10 PM PDT
2014-09-27
Minimum magnitude displayed is 2.5.

Coastal Water Temperatures

Place Temperature
No Stations Reporting

Nearby Weather Stations